createdAt,value
2022-12-13T00:01:32.796Z,4.25
2022-12-13T00:04:01.811Z,3.38
2022-12-13T00:06:30.639Z,3.55
2022-12-13T00:08:58.622Z,3.38
2022-12-13T00:11:26.628Z,3.10
2022-12-13T00:13:54.377Z,3.22
2022-12-13T00:16:23.929Z,3.42
2022-12-13T00:18:55.105Z,3.50
2022-12-13T00:21:25.522Z,3.22
2022-12-13T00:23:53.547Z,3.15
2022-12-13T00:26:23.796Z,3.72
2022-12-13T00:28:51.874Z,3.53
2022-12-13T00:34:10.658Z,3.03
2022-12-13T00:36:38.618Z,3.70
2022-12-13T00:39:05.956Z,3.45
2022-12-13T00:41:36.153Z,3.10
2022-12-13T00:44:04.997Z,3.00
2022-12-13T00:46:33.242Z,3.28
2022-12-13T00:49:02.062Z,3.25
2022-12-13T00:51:33.099Z,3.10
2022-12-13T00:54:01.380Z,3.50
2022-12-13T00:56:30.956Z,3.22
2022-12-13T00:58:58.928Z,2.58
2022-12-13T01:01:29.552Z,3.50
2022-12-13T01:03:59.710Z,3.15
2022-12-13T01:06:33.595Z,3.97
2022-12-13T01:09:01.487Z,3.35
2022-12-13T01:11:29.297Z,2.78
2022-12-13T01:13:56.817Z,2.00
2022-12-13T01:16:24.516Z,3.22
2022-12-13T01:18:51.946Z,3.88
2022-12-13T01:21:20.305Z,3.47
2022-12-13T01:23:53.349Z,3.28
2022-12-13T01:26:22.031Z,3.05
2022-12-13T01:28:49.766Z,2.85
2022-12-13T01:31:19.343Z,3.05
2022-12-13T01:33:46.978Z,3.13
2022-12-13T01:36:16.391Z,3.30
2022-12-13T01:38:43.783Z,3.28
2022-12-13T01:41:17.683Z,3.53
2022-12-13T01:43:54.466Z,2.67
2022-12-13T01:46:22.585Z,2.65
2022-12-13T01:49:01.744Z,2.83
2022-12-13T01:51:33.922Z,2.95
2022-12-13T01:54:06.782Z,3.08
2022-12-13T01:56:40.709Z,2.85
2022-12-13T01:59:10.785Z,3.40
2022-12-13T02:01:39.912Z,3.90
2022-12-13T02:04:08.312Z,2.92
2022-12-13T02:06:38.263Z,2.72
2022-12-13T02:09:07.738Z,2.83
2022-12-13T02:11:40.941Z,3.75
2022-12-13T02:14:11.513Z,3.60
2022-12-13T02:16:50.345Z,3.35
2022-12-13T02:19:55.279Z,3.08
2022-12-13T02:22:40.296Z,3.22
2022-12-13T02:25:32.895Z,3.28
2022-12-13T02:28:30.807Z,2.08
2022-12-13T02:31:09.227Z,2.67
2022-12-13T02:33:50.538Z,3.28
2022-12-13T02:36:25.259Z,2.67
2022-12-13T02:38:59.514Z,2.67
2022-12-13T02:41:37.507Z,2.58
2022-12-13T02:44:21.854Z,2.42
2022-12-13T02:46:55.302Z,2.88
2022-12-13T02:49:25.487Z,2.78
2022-12-13T02:51:54.439Z,2.45
2022-12-13T02:54:23.921Z,2.55
2022-12-13T02:56:55.034Z,2.60
2022-12-13T02:59:28.531Z,2.15
2022-12-13T03:02:10.125Z,2.25
2022-12-13T03:04:48.271Z,2.90
2022-12-13T03:07:27.000Z,3.15
2022-12-13T03:09:59.517Z,3.20
2022-12-13T03:12:37.311Z,2.63
2022-12-13T03:15:16.324Z,2.03
2022-12-13T03:17:49.718Z,2.90
2022-12-13T03:20:23.095Z,2.08
2022-12-13T03:22:51.240Z,2.25
2022-12-13T03:25:31.259Z,3.08
2022-12-13T03:28:01.082Z,2.92
2022-12-13T03:30:30.611Z,3.00
2022-12-13T03:33:02.607Z,2.50
2022-12-13T03:35:34.847Z,2.60
2022-12-13T03:38:13.194Z,2.47
2022-12-13T03:40:57.336Z,2.58
2022-12-13T03:43:24.858Z,2.72
2022-12-13T03:45:56.698Z,3.15
2022-12-13T03:48:25.689Z,4.07
2022-12-13T03:50:54.695Z,4.75
2022-12-13T03:53:33.578Z,5.03
2022-12-13T03:56:03.920Z,6.10
2022-12-13T03:58:36.595Z,5.30
2022-12-13T04:01:07.626Z,3.58
2022-12-13T04:03:38.036Z,3.40
2022-12-13T04:06:06.868Z,3.35
2022-12-13T04:08:34.959Z,4.07
2022-12-13T04:11:03.356Z,4.45
2022-12-13T04:13:30.677Z,4.18
2022-12-13T04:15:58.596Z,4.43
2022-12-13T04:18:25.978Z,4.82
2022-12-13T04:20:55.495Z,5.57
2022-12-13T04:23:22.938Z,4.32
2022-12-13T04:25:51.228Z,3.70
2022-12-13T04:28:22.199Z,3.72
2022-12-13T04:30:54.092Z,4.43
2022-12-13T04:33:22.430Z,3.97
2022-12-13T04:35:50.846Z,4.93
2022-12-13T04:38:20.029Z,4.25
2022-12-13T04:40:47.788Z,4.57
2022-12-13T04:43:15.480Z,4.82
2022-12-13T04:45:43.504Z,4.30
2022-12-13T04:48:10.989Z,4.63
2022-12-13T04:50:38.924Z,4.15
2022-12-13T04:53:06.390Z,4.35
2022-12-13T04:55:37.357Z,5.00
2022-12-13T04:58:04.748Z,4.00
2022-12-13T05:00:32.477Z,4.20
2022-12-13T05:02:59.847Z,4.97
2022-12-13T05:05:27.807Z,5.82
2022-12-13T05:07:55.713Z,5.47
2022-12-13T05:10:35.867Z,4.47
2022-12-13T05:13:07.069Z,5.43
2022-12-13T05:15:34.872Z,5.07
2022-12-13T05:18:10.077Z,4.82
2022-12-13T05:20:39.312Z,4.85
2022-12-13T05:23:07.040Z,6.18
2022-12-13T05:25:35.198Z,5.22
2022-12-13T05:28:08.999Z,4.22
2022-12-13T05:30:52.137Z,3.72
2022-12-13T05:33:19.473Z,4.15
2022-12-13T05:35:47.302Z,3.90
2022-12-13T05:38:14.656Z,3.63
2022-12-13T05:40:42.618Z,3.70
2022-12-13T05:43:21.347Z,4.05
2022-12-13T05:45:51.783Z,3.45
2022-12-13T05:48:24.344Z,3.80
2022-12-13T05:51:09.568Z,3.60
2022-12-13T05:53:40.407Z,3.58
2022-12-13T05:56:09.504Z,3.25
2022-12-13T05:58:38.081Z,3.85
2022-12-13T06:01:09.241Z,3.67
2022-12-13T06:03:37.288Z,4.10
2022-12-13T06:06:06.839Z,3.33
2022-12-13T06:08:34.345Z,4.05
2022-12-13T06:11:09.743Z,4.20
2022-12-13T06:13:42.130Z,4.45
2022-12-13T06:16:22.171Z,4.45
2022-12-13T06:18:59.325Z,4.93
2022-12-13T06:21:41.212Z,4.78
2022-12-13T06:24:17.747Z,6.90
2022-12-13T06:26:46.298Z,7.95
2022-12-13T06:29:23.393Z,7.07
2022-12-13T06:32:02.390Z,6.72
2022-12-13T06:34:32.712Z,6.32
2022-12-13T06:37:04.843Z,6.13
2022-12-13T06:39:33.537Z,5.50
2022-12-13T06:42:02.768Z,5.50
2022-12-13T06:44:30.210Z,5.35
2022-12-13T06:47:12.050Z,5.50
2022-12-13T06:49:42.908Z,5.78
2022-12-13T06:52:12.259Z,6.15
2022-12-13T06:54:42.904Z,4.82
2022-12-13T06:57:11.229Z,5.18
2022-12-13T06:59:38.929Z,5.55
2022-12-13T07:02:24.548Z,5.28
2022-12-13T07:04:55.068Z,4.85
2022-12-13T07:07:24.055Z,5.47
2022-12-13T07:09:51.782Z,5.03
2022-12-13T07:12:22.989Z,7.30
2022-12-13T07:14:50.657Z,7.22
2022-12-13T07:17:33.338Z,6.13
2022-12-13T07:20:04.279Z,6.47
2022-12-13T07:22:35.277Z,7.07
2022-12-13T07:25:07.771Z,5.50
2022-12-13T07:28:02.243Z,7.43
2022-12-13T07:30:32.332Z,6.00
2022-12-13T07:33:02.425Z,5.28
2022-12-13T07:35:30.614Z,6.45
2022-12-13T07:37:59.175Z,4.90
2022-12-13T07:40:26.767Z,6.32
2022-12-13T07:42:56.562Z,4.45
2022-12-13T07:45:24.427Z,3.90
2022-12-13T07:47:52.348Z,4.55
2022-12-13T07:50:24.971Z,4.53
2022-12-13T07:52:53.717Z,6.07
2022-12-13T07:55:32.768Z,6.30
2022-12-13T07:58:06.734Z,6.05
2022-12-13T08:00:34.195Z,4.80
2022-12-13T08:03:02.095Z,5.65
2022-12-13T08:05:38.577Z,7.97
2022-12-13T08:08:08.685Z,4.10
2022-12-13T08:10:36.499Z,4.43
2022-12-13T08:13:05.049Z,4.78
2022-12-13T08:15:32.597Z,4.32
2022-12-13T08:18:00.264Z,4.75
2022-12-13T08:20:28.159Z,5.35
2022-12-13T08:23:02.068Z,4.78
2022-12-13T08:25:30.522Z,5.70
2022-12-13T08:28:02.135Z,6.55
2022-12-13T08:30:32.420Z,5.75
2022-12-13T08:33:05.016Z,5.55
2022-12-13T08:35:34.542Z,4.00
2022-12-13T08:38:04.806Z,4.05
2022-12-13T08:40:32.330Z,3.40
2022-12-13T08:43:00.169Z,3.53
2022-12-13T08:45:27.695Z,3.13
2022-12-13T08:47:58.395Z,2.92
2022-12-13T08:50:25.983Z,3.50
2022-12-13T08:52:54.020Z,3.63
2022-12-13T08:55:32.207Z,3.35
2022-12-13T08:58:05.051Z,3.47
2022-12-13T09:00:35.697Z,3.97
2022-12-13T09:03:04.949Z,5.28
2022-12-13T09:05:34.988Z,6.32
2022-12-13T09:08:04.175Z,5.18
2022-12-13T09:10:38.667Z,2.83
2022-12-13T09:13:11.710Z,4.60
2022-12-13T09:15:45.847Z,4.30
2022-12-13T09:18:15.163Z,3.95
2022-12-13T09:20:43.185Z,3.30
2022-12-13T09:23:13.930Z,5.07
2022-12-13T09:25:55.337Z,3.30
2022-12-13T09:28:25.860Z,4.03
2022-12-13T09:30:53.239Z,3.25
2022-12-13T09:33:30.123Z,3.50
2022-12-13T09:36:01.319Z,2.78
2022-12-13T09:38:29.542Z,3.03
2022-12-13T09:41:01.169Z,3.35
2022-12-13T09:43:33.799Z,3.17
2022-12-13T09:46:27.533Z,2.53
2022-12-13T09:49:04.990Z,3.50
2022-12-13T09:51:45.008Z,3.78
2022-12-13T09:54:19.289Z,3.78
2022-12-13T09:56:49.002Z,3.08
2022-12-13T09:59:18.459Z,3.25
2022-12-13T10:01:46.407Z,3.40
2022-12-13T10:04:14.565Z,3.10
2022-12-13T10:06:42.166Z,3.83
2022-12-13T10:09:13.143Z,4.25
2022-12-13T10:11:50.872Z,3.55
2022-12-13T10:14:24.974Z,3.08
2022-12-13T10:16:56.490Z,3.03
2022-12-13T10:19:32.140Z,3.40
2022-12-13T10:22:01.869Z,3.20
2022-12-13T10:24:47.272Z,4.40
2022-12-13T10:27:17.972Z,4.00
2022-12-13T10:30:04.643Z,3.90
2022-12-13T10:32:37.871Z,3.83
2022-12-13T10:35:19.731Z,3.75
2022-12-13T10:37:47.157Z,3.53
2022-12-13T10:40:32.311Z,3.33
2022-12-13T10:43:12.524Z,3.90
2022-12-13T10:45:40.646Z,3.65
2022-12-13T10:48:19.332Z,3.03
2022-12-13T10:53:29.323Z,2.88
2022-12-13T10:56:02.428Z,4.03
2022-12-13T10:58:40.416Z,3.40
2022-12-13T11:01:11.831Z,3.05
2022-12-13T11:03:39.358Z,3.83
2022-12-13T11:06:13.015Z,3.47
2022-12-13T11:08:40.503Z,3.70
2022-12-13T11:11:09.957Z,3.38
2022-12-13T11:13:42.637Z,3.25
2022-12-13T11:16:22.627Z,3.47
2022-12-13T11:18:54.420Z,3.38
2022-12-13T11:21:25.980Z,3.35
2022-12-13T11:23:55.765Z,2.75
2022-12-13T11:26:25.329Z,2.92
2022-12-13T11:29:06.136Z,3.80
2022-12-13T11:31:47.581Z,3.00
2022-12-13T11:34:25.797Z,2.80
2022-12-13T11:37:01.253Z,3.17
2022-12-13T11:39:32.907Z,3.58
2022-12-13T11:42:10.493Z,2.53
2022-12-13T11:44:51.570Z,3.80
2022-12-13T11:47:24.281Z,3.00
2022-12-13T11:49:52.966Z,3.70
2022-12-13T11:52:27.279Z,3.65
2022-12-13T11:54:59.320Z,3.95
2022-12-13T11:57:37.844Z,4.63
2022-12-13T12:00:33.805Z,3.10
2022-12-13T12:03:15.737Z,3.22
2022-12-13T12:05:47.714Z,2.80
2022-12-13T12:08:32.133Z,3.03
2022-12-13T12:11:07.301Z,2.83
2022-12-13T12:13:51.007Z,3.03
2022-12-13T12:16:34.243Z,2.80
2022-12-13T12:19:02.443Z,3.17
2022-12-13T12:22:12.125Z,2.90
2022-12-13T12:24:35.955Z,2.92
2022-12-13T12:27:22.063Z,2.95
2022-12-13T12:30:10.318Z,2.65
2022-12-13T12:32:47.078Z,3.08
2022-12-13T12:35:46.199Z,2.83
2022-12-13T12:38:36.376Z,3.30
2022-12-13T12:41:22.727Z,2.75
2022-12-13T12:43:56.181Z,2.50
2022-12-13T12:47:17.730Z,3.13
2022-12-13T12:50:22.764Z,2.95
2022-12-13T12:53:00.385Z,2.85
2022-12-13T12:55:37.882Z,3.08
2022-12-13T12:58:17.764Z,2.85
2022-12-13T13:00:55.619Z,3.63
2022-12-13T13:03:25.887Z,3.35
2022-12-13T13:06:02.712Z,2.28
2022-12-13T13:08:40.991Z,3.47
2022-12-13T13:11:23.732Z,3.08
2022-12-13T13:14:04.691Z,3.00
2022-12-13T13:16:36.251Z,3.17
2022-12-13T13:19:05.066Z,2.83
2022-12-13T13:21:42.783Z,2.75
2022-12-13T13:24:19.687Z,3.42
2022-12-13T13:26:49.011Z,3.83
2022-12-13T13:29:30.414Z,3.90
2022-12-13T13:32:01.795Z,3.78
2022-12-13T13:34:32.279Z,5.03
2022-12-13T13:37:02.603Z,4.72
2022-12-13T13:39:57.034Z,4.97
2022-12-13T13:42:25.523Z,4.68
2022-12-13T13:45:09.223Z,5.32
2022-12-13T13:47:41.819Z,4.32
2022-12-13T13:50:38.545Z,4.88
2022-12-13T13:53:40.091Z,4.05
2022-12-13T13:56:30.768Z,3.85
2022-12-13T13:59:17.997Z,3.47
2022-12-13T14:02:23.518Z,3.88
2022-12-13T14:05:36.090Z,3.65
2022-12-13T14:08:20.562Z,3.65
2022-12-13T14:11:08.438Z,4.00
2022-12-13T14:14:22.305Z,3.72
2022-12-13T14:17:46.201Z,3.70
2022-12-13T14:21:02.877Z,3.55
2022-12-13T14:23:40.635Z,4.07
2022-12-13T14:26:24.030Z,4.05
2022-12-13T14:28:54.075Z,4.35
2022-12-13T14:31:24.699Z,5.97
2022-12-13T14:33:54.036Z,4.47
2022-12-13T14:36:28.891Z,5.65
2022-12-13T14:39:03.013Z,5.80
2022-12-13T14:41:32.646Z,6.35
2022-12-13T14:44:15.321Z,6.40
2022-12-13T14:46:53.884Z,6.90
2022-12-13T14:49:22.094Z,7.03
2022-12-13T14:51:53.187Z,5.65
2022-12-13T14:54:25.932Z,5.78
2022-12-13T14:56:57.431Z,7.13
2022-12-13T14:59:25.328Z,6.80
2022-12-13T15:01:58.844Z,6.00
2022-12-13T15:07:00.268Z,4.00
2022-12-13T15:09:29.333Z,5.55
2022-12-13T15:12:24.087Z,5.25
2022-12-13T15:14:50.711Z,6.10
2022-12-13T15:17:27.030Z,5.72
2022-12-13T15:19:54.692Z,5.35
2022-12-13T15:22:23.033Z,5.30
2022-12-13T15:24:57.770Z,5.28
2022-12-13T15:27:27.506Z,5.47
2022-12-13T15:29:55.463Z,5.63
2022-12-13T15:32:23.350Z,5.38
2022-12-13T15:34:51.254Z,4.75
2022-12-13T15:37:29.630Z,4.50
2022-12-13T15:40:00.901Z,6.03
2022-12-13T15:42:33.443Z,4.63
2022-12-13T15:45:02.794Z,6.53
2022-12-13T15:47:30.950Z,4.97
2022-12-13T15:50:00.003Z,7.32
2022-12-13T15:52:33.505Z,6.30
2022-12-13T15:55:03.330Z,6.38
2022-12-13T15:57:36.797Z,6.07
2022-12-13T16:00:30.222Z,6.53
2022-12-13T16:03:09.567Z,5.80
2022-12-13T16:05:40.360Z,5.22
2022-12-13T16:08:22.707Z,6.25
2022-12-13T16:10:51.638Z,5.68
2022-12-13T16:13:26.875Z,6.55
2022-12-13T16:15:59.731Z,6.85
2022-12-13T16:18:32.343Z,5.32
2022-12-13T16:21:00.007Z,5.82
2022-12-13T16:23:28.185Z,6.07
2022-12-13T16:25:55.708Z,6.88
2022-12-13T16:28:26.416Z,6.03
2022-12-13T16:31:09.979Z,6.32
2022-12-13T16:33:37.810Z,4.82
2022-12-13T16:36:05.422Z,5.38
2022-12-13T16:38:33.590Z,4.35
2022-12-13T16:41:08.373Z,4.25
2022-12-13T16:43:45.669Z,5.10
2022-12-13T16:47:16.739Z,4.53
2022-12-13T16:49:05.326Z,8.82
2022-12-13T16:51:32.708Z,8.32
2022-12-13T16:54:00.529Z,6.53
2022-12-13T16:56:28.102Z,5.30
2022-12-13T16:58:57.675Z,6.13
2022-12-13T17:01:25.324Z,7.30
2022-12-13T17:03:53.124Z,7.35
2022-12-13T17:06:24.494Z,6.55
2022-12-13T17:08:52.301Z,7.28
2022-12-13T17:11:19.849Z,6.18
2022-12-13T17:13:47.793Z,7.30
2022-12-13T17:16:16.799Z,6.85
2022-12-13T17:18:44.724Z,9.13
2022-12-13T17:21:12.366Z,6.35
2022-12-13T17:23:40.083Z,8.43
2022-12-13T17:26:09.227Z,8.82
2022-12-13T17:28:37.517Z,8.02
2022-12-13T17:31:06.422Z,7.32
2022-12-13T17:33:35.853Z,7.57
2022-12-13T17:36:03.816Z,7.50
2022-12-13T17:38:32.353Z,9.43
2022-12-13T17:41:00.545Z,8.32
2022-12-13T17:43:34.652Z,6.85
2022-12-13T17:46:04.644Z,9.38
2022-12-13T17:48:39.703Z,4.97
2022-12-13T17:51:11.302Z,7.13
2022-12-13T17:53:40.841Z,7.18
2022-12-13T17:56:09.924Z,8.82
2022-12-13T17:58:38.548Z,11.73
2022-12-13T18:01:17.442Z,12.95
2022-12-13T18:03:46.571Z,13.13
2022-12-13T18:06:15.745Z,14.52
2022-12-13T18:08:46.784Z,13.20
2022-12-13T18:11:32.225Z,15.05
2022-12-13T18:14:00.808Z,12.52
2022-12-13T18:16:35.896Z,11.35
2022-12-13T18:19:05.873Z,14.35
2022-12-13T18:21:34.783Z,12.63
2022-12-13T18:24:02.885Z,11.93
2022-12-13T18:26:30.508Z,10.82
2022-12-13T18:28:58.504Z,12.65
2022-12-13T18:31:26.173Z,13.90
2022-12-13T18:33:54.788Z,12.95
2022-12-13T18:36:24.615Z,13.88
2022-12-13T18:38:54.118Z,11.35
2022-12-13T18:41:23.460Z,13.23
2022-12-13T18:43:55.400Z,14.05
2022-12-13T18:46:23.300Z,14.25
2022-12-13T18:48:51.323Z,12.27
2022-12-13T18:51:18.970Z,13.45
2022-12-13T18:53:46.873Z,13.20
2022-12-13T18:56:19.060Z,14.10
2022-12-13T18:58:49.331Z,11.77
2022-12-13T19:01:18.689Z,11.82
2022-12-13T19:03:48.163Z,11.35
2022-12-13T19:06:17.593Z,9.80
2022-12-13T19:08:47.505Z,11.85
2022-12-13T19:11:16.668Z,11.50
2022-12-13T19:13:45.373Z,11.02
2022-12-13T19:16:16.407Z,9.50
2022-12-13T19:18:44.919Z,8.23
2022-12-13T19:21:14.572Z,9.90
2022-12-13T19:23:42.943Z,11.05
2022-12-13T19:26:12.813Z,11.35
2022-12-13T19:28:43.747Z,8.57
2022-12-13T19:31:13.349Z,8.68
2022-12-13T19:33:41.767Z,8.80
2022-12-13T19:36:10.776Z,8.50
2022-12-13T19:38:38.951Z,10.35
2022-12-13T19:41:08.210Z,10.25
2022-12-13T19:43:36.900Z,8.82
2022-12-13T19:46:06.856Z,8.77
2022-12-13T19:48:35.472Z,9.88
2022-12-13T19:51:04.466Z,9.23
2022-12-13T19:53:32.969Z,9.82
2022-12-13T19:56:00.627Z,7.82
2022-12-13T19:58:28.793Z,9.52
2022-12-13T20:01:01.688Z,8.95
2022-12-13T20:03:33.938Z,9.02
2022-12-13T20:06:02.885Z,10.55
2022-12-13T20:08:31.526Z,10.48
2022-12-13T20:11:00.469Z,10.82
2022-12-13T20:13:29.039Z,10.30
2022-12-13T20:15:57.349Z,9.95
2022-12-13T20:18:25.936Z,11.82
2022-12-13T20:21:11.717Z,9.43
2022-12-13T20:23:42.251Z,11.40
2022-12-13T20:26:20.030Z,12.32
2022-12-13T20:28:48.654Z,11.60
2022-12-13T20:31:17.779Z,12.00
2022-12-13T20:33:46.156Z,13.45
2022-12-13T20:36:25.875Z,13.95
2022-12-13T20:38:55.969Z,15.25
2022-12-13T20:41:24.807Z,15.98
2022-12-13T20:43:53.670Z,13.05
2022-12-13T20:46:21.972Z,13.50
2022-12-13T20:48:50.701Z,12.35
2022-12-13T20:51:21.646Z,13.57
2022-12-13T20:53:50.428Z,15.40
2022-12-13T20:56:21.058Z,12.63
2022-12-13T20:58:49.306Z,16.58
2022-12-13T21:01:21.646Z,16.02
2022-12-13T21:03:50.425Z,14.30
2022-12-13T21:06:19.461Z,14.65
2022-12-13T21:08:47.845Z,13.82
2022-12-13T21:11:15.487Z,15.23
2022-12-13T21:13:43.681Z,14.13
2022-12-13T21:16:16.249Z,13.23
2022-12-13T21:18:44.315Z,11.98
2022-12-13T21:21:12.080Z,9.93
2022-12-13T21:23:41.459Z,12.18
2022-12-13T21:26:08.946Z,10.60
2022-12-13T21:28:37.312Z,12.50
2022-12-13T21:31:06.812Z,10.20
2022-12-13T21:33:35.819Z,13.90
2022-12-13T21:36:14.465Z,13.38
2022-12-13T21:38:44.149Z,11.75
2022-12-13T21:41:12.075Z,11.23
2022-12-13T21:43:40.697Z,9.73
2022-12-13T21:46:10.187Z,13.38
2022-12-13T21:48:39.774Z,12.73
2022-12-13T21:51:08.837Z,12.15
2022-12-13T21:53:38.597Z,9.43
2022-12-13T21:56:09.408Z,12.38
2022-12-13T21:58:37.179Z,13.13
2022-12-13T22:01:05.134Z,13.65
2022-12-13T22:03:32.948Z,16.85
2022-12-13T22:06:00.470Z,12.93
2022-12-13T22:08:28.855Z,12.88
2022-12-13T22:10:56.653Z,9.32
2022-12-13T22:13:26.141Z,8.00
2022-12-13T22:15:53.599Z,10.20
2022-12-13T22:18:21.510Z,9.18
2022-12-13T22:20:56.052Z,11.35
2022-12-13T22:23:24.057Z,8.35
2022-12-13T22:25:53.927Z,8.52
2022-12-13T22:28:22.403Z,9.82
2022-12-13T22:30:54.796Z,9.00
2022-12-13T22:33:22.945Z,6.10
2022-12-13T22:35:53.224Z,10.95
2022-12-13T22:38:21.255Z,10.70
2022-12-13T22:40:48.643Z,9.40
2022-12-13T22:43:20.571Z,9.02
2022-12-13T22:45:48.449Z,10.68
2022-12-13T22:48:17.643Z,12.82
2022-12-13T22:50:45.326Z,11.73
2022-12-13T22:53:13.055Z,10.45
2022-12-13T22:55:40.379Z,11.77
2022-12-13T22:58:08.053Z,9.55
2022-12-13T23:03:03.588Z,5.80
2022-12-13T23:05:32.730Z,7.65
2022-12-13T23:08:00.455Z,9.23
2022-12-13T23:10:27.836Z,10.13
2022-12-13T23:12:55.590Z,10.23
2022-12-13T23:15:23.084Z,9.80
2022-12-13T23:17:50.711Z,8.65
2022-12-13T23:20:18.104Z,10.05
2022-12-13T23:22:47.337Z,11.95
2022-12-13T23:25:14.919Z,12.10
2022-12-13T23:27:42.785Z,11.70
2022-12-13T23:30:11.611Z,11.93
2022-12-13T23:32:39.405Z,11.05
2022-12-13T23:35:07.846Z,8.45
2022-12-13T23:37:35.660Z,12.77
2022-12-13T23:40:05.900Z,10.20
2022-12-13T23:42:33.626Z,10.02
2022-12-13T23:45:01.040Z,8.80
2022-12-13T23:47:28.675Z,7.90
2022-12-13T23:52:23.430Z,7.80
2022-12-13T23:57:19.779Z,6.22
2022-12-13T23:59:47.043Z,9.60
